createdAt,value
2024-02-27T00:01:51.331Z,101516.13
2024-02-27T00:04:17.850Z,101520.78
2024-02-27T00:06:45.261Z,101519.28
2024-02-27T00:09:16.409Z,101517.66
2024-02-27T00:11:44.852Z,101517.78
2024-02-27T00:14:11.403Z,101522.84
2024-02-27T00:16:38.184Z,101518.28
2024-02-27T00:19:04.958Z,101523.84
2024-02-27T00:21:31.455Z,101525.84
2024-02-27T00:23:58.074Z,101532.00
2024-02-27T00:26:24.454Z,101538.44
2024-02-27T00:28:51.292Z,101543.75
2024-02-27T00:31:17.723Z,101540.97
2024-02-27T00:33:44.460Z,101545.38
2024-02-27T00:36:10.907Z,101546.50
2024-02-27T00:38:37.548Z,101549.63
2024-02-27T00:41:04.205Z,101552.28
2024-02-27T00:43:30.950Z,101560.00
2024-02-27T00:45:57.287Z,101560.41
2024-02-27T00:48:23.955Z,101563.19
2024-02-27T00:50:50.587Z,101564.09
2024-02-27T00:53:18.014Z,101571.50
2024-02-27T00:55:44.665Z,101568.50
2024-02-27T00:58:13.723Z,101562.66
2024-02-27T01:00:40.486Z,101563.94
2024-02-27T01:03:06.941Z,101566.00
2024-02-27T01:05:33.527Z,101562.69
2024-02-27T01:08:00.128Z,101559.44
2024-02-27T01:10:26.783Z,101566.25
2024-02-27T01:12:53.373Z,101566.25
2024-02-27T01:15:19.673Z,101566.25
2024-02-27T01:17:46.110Z,101564.25
2024-02-27T01:20:12.450Z,101574.34
2024-02-27T01:22:39.494Z,101571.03
2024-02-27T01:25:05.960Z,101570.03
2024-02-27T01:27:32.847Z,101576.75
2024-02-27T01:29:59.244Z,101568.75
2024-02-27T01:32:25.949Z,101572.94
2024-02-27T01:34:52.448Z,101566.09
2024-02-27T01:37:19.089Z,101570.53
2024-02-27T01:39:45.811Z,101566.47
2024-02-27T01:42:14.552Z,101563.94
2024-02-27T01:44:47.007Z,101580.13
2024-02-27T01:47:13.615Z,101572.06
2024-02-27T01:49:40.291Z,101588.25
2024-02-27T01:52:07.104Z,101587.47
2024-02-27T01:54:34.014Z,101592.03
2024-02-27T01:57:00.413Z,101579.53
2024-02-27T01:59:26.934Z,101584.94
2024-02-27T02:01:53.863Z,101582.16
2024-02-27T02:04:20.708Z,101578.13
2024-02-27T02:06:48.347Z,101583.44
2024-02-27T02:09:14.658Z,101577.63
2024-02-27T02:11:43.431Z,101574.25
2024-02-27T02:14:09.911Z,101574.25
2024-02-27T02:16:36.493Z,101581.94
2024-02-27T02:19:03.308Z,101590.63
2024-02-27T02:21:30.032Z,101585.59
2024-02-27T02:24:00.487Z,101591.66
2024-02-27T02:26:28.784Z,101590.16
2024-02-27T02:28:55.295Z,101586.72
2024-02-27T02:31:21.589Z,101581.44
2024-02-27T02:33:48.210Z,101603.25
2024-02-27T02:36:14.694Z,101602.16
2024-02-27T02:38:41.318Z,101615.50
2024-02-27T02:41:07.656Z,101616.28
2024-02-27T02:43:34.023Z,101623.59
2024-02-27T02:46:00.518Z,101626.47
2024-02-27T02:48:26.943Z,101631.88
2024-02-27T02:50:53.546Z,101635.38
2024-02-27T02:53:20.100Z,101632.72
2024-02-27T02:55:46.701Z,101626.19
2024-02-27T02:58:13.246Z,101626.44
2024-02-27T03:00:39.613Z,101627.34
2024-02-27T03:03:06.253Z,101629.09
2024-02-27T03:05:32.827Z,101630.84
2024-02-27T03:07:59.334Z,101627.59
2024-02-27T03:10:25.700Z,101637.97
2024-02-27T03:12:52.211Z,101639.19
2024-02-27T03:15:18.540Z,101639.31
2024-02-27T03:17:45.612Z,101644.75
2024-02-27T03:20:12.097Z,101645.28
2024-02-27T03:22:38.858Z,101647.81
2024-02-27T03:25:07.300Z,101646.00
2024-02-27T03:27:33.954Z,101649.31
2024-02-27T03:30:00.778Z,101644.25
2024-02-27T03:32:27.135Z,101649.31
2024-02-27T03:34:53.662Z,101648.41
2024-02-27T03:37:20.408Z,101656.09
2024-02-27T03:39:46.964Z,101654.88
2024-02-27T03:42:13.524Z,101660.94
2024-02-27T03:44:43.454Z,101660.56
2024-02-27T03:47:10.166Z,101657.38
2024-02-27T03:49:36.619Z,101654.00
2024-02-27T03:52:03.176Z,101647.28
2024-02-27T03:54:29.533Z,101643.47
2024-02-27T03:56:55.884Z,101650.19
2024-02-27T03:59:22.239Z,101659.41
2024-02-27T04:01:52.264Z,101660.91
2024-02-27T04:04:18.588Z,101658.59
2024-02-27T04:06:45.018Z,101655.34
2024-02-27T04:09:11.689Z,101665.69
2024-02-27T04:11:38.041Z,101659.63
2024-02-27T04:14:05.142Z,101659.34
2024-02-27T04:16:31.656Z,101664.16
2024-02-27T04:18:58.127Z,101661.34
2024-02-27T04:21:24.538Z,101659.56
2024-02-27T04:23:51.267Z,101659.22
2024-02-27T04:26:17.593Z,101672.88
2024-02-27T04:28:44.110Z,101664.53
2024-02-27T04:31:10.658Z,101670.22
2024-02-27T04:33:37.118Z,101670.81
2024-02-27T04:36:03.832Z,101686.59
2024-02-27T04:38:30.379Z,101694.66
2024-02-27T04:40:57.095Z,101691.09
2024-02-27T04:43:23.389Z,101692.88
2024-02-27T04:45:50.015Z,101680.41
2024-02-27T04:48:16.729Z,101683.06
2024-02-27T04:50:43.231Z,101682.91
2024-02-27T04:53:09.530Z,101687.84
2024-02-27T04:55:36.044Z,101679.84
2024-02-27T04:58:02.539Z,101682.22
2024-02-27T05:00:29.102Z,101682.09
2024-02-27T05:02:55.636Z,101681.97
2024-02-27T05:05:22.279Z,101683.31
2024-02-27T05:07:48.672Z,101680.81
2024-02-27T05:10:15.365Z,101684.97
2024-02-27T05:12:41.645Z,101685.97
2024-02-27T05:15:08.251Z,101688.50
2024-02-27T05:17:35.022Z,101690.91
2024-02-27T05:20:01.362Z,101687.66
2024-02-27T05:22:27.896Z,101685.97
2024-02-27T05:24:54.216Z,101676.91
2024-02-27T05:27:20.758Z,101676.91
2024-02-27T05:29:47.539Z,101668.56
2024-02-27T05:32:14.288Z,101676.16
2024-02-27T05:34:40.667Z,101680.94
2024-02-27T05:37:07.217Z,101691.78
2024-02-27T05:39:33.563Z,101690.91
2024-02-27T05:42:00.965Z,101691.78
2024-02-27T05:44:27.730Z,101699.63
2024-02-27T05:46:54.096Z,101696.34
2024-02-27T05:49:20.842Z,101698.47
2024-02-27T05:51:47.207Z,101699.09
2024-02-27T05:54:13.788Z,101694.78
2024-02-27T05:56:40.096Z,101696.72
2024-02-27T05:59:06.679Z,101695.94
2024-02-27T06:01:33.351Z,101702.91
2024-02-27T06:03:59.708Z,101709.88
2024-02-27T06:06:26.377Z,101708.97
2024-02-27T06:08:52.705Z,101709.59
2024-02-27T06:11:19.719Z,101712.25
2024-02-27T06:13:46.054Z,101708.22
2024-02-27T06:16:12.705Z,101719.34
2024-02-27T06:18:43.132Z,101716.34
2024-02-27T06:21:29.360Z,101722.41
2024-02-27T06:23:55.791Z,101720.66
2024-02-27T06:26:22.175Z,101726.88
2024-02-27T06:28:49.259Z,101735.31
2024-02-27T06:31:15.568Z,101733.53
2024-02-27T06:33:42.266Z,101734.44
2024-02-27T06:36:08.964Z,101739.88
2024-02-27T06:38:35.357Z,101737.88
2024-02-27T06:41:01.934Z,101745.97
2024-02-27T06:43:28.224Z,101738.25
2024-02-27T06:45:55.992Z,101744.31
2024-02-27T06:48:22.424Z,101744.59
2024-02-27T06:50:52.893Z,101742.34
2024-02-27T06:53:19.228Z,101748.56
2024-02-27T06:55:46.976Z,101760.22
2024-02-27T06:58:13.460Z,101762.53
2024-02-27T07:00:40.087Z,101762.41
2024-02-27T07:03:06.696Z,101770.38
2024-02-27T07:05:39.661Z,101774.91
2024-02-27T07:08:11.432Z,101773.56
2024-02-27T07:10:39.037Z,101773.22
2024-02-27T07:13:10.539Z,101761.88
2024-02-27T07:15:37.298Z,101772.25
2024-02-27T07:18:05.120Z,101765.69
2024-02-27T07:20:32.194Z,101768.72
2024-02-27T07:23:00.825Z,101772.41
2024-02-27T07:25:27.140Z,101769.53
2024-02-27T07:27:53.560Z,101781.69
2024-02-27T07:30:20.116Z,101781.44
2024-02-27T07:32:46.514Z,101782.72
2024-02-27T07:35:13.352Z,101783.03
2024-02-27T07:37:40.358Z,101787.56
2024-02-27T07:40:07.995Z,101786.97
2024-02-27T07:42:34.992Z,101785.59
2024-02-27T07:45:01.390Z,101791.38
2024-02-27T07:47:27.967Z,101792.88
2024-02-27T07:49:55.575Z,101789.50
2024-02-27T07:52:22.272Z,101792.63
2024-02-27T07:54:48.688Z,101797.19
2024-02-27T07:57:15.149Z,101801.88
2024-02-27T07:59:41.509Z,101802.00
2024-02-27T08:02:08.088Z,101803.41
2024-02-27T08:04:34.479Z,101802.00
2024-02-27T08:07:01.012Z,101794.16
2024-02-27T08:09:27.699Z,101796.94
2024-02-27T08:11:54.496Z,101800.88
2024-02-27T08:14:20.924Z,101798.47
2024-02-27T08:16:47.388Z,101793.94
2024-02-27T08:19:14.176Z,101811.16
2024-02-27T08:21:40.582Z,101802.69
2024-02-27T08:24:10.034Z,101807.25
2024-02-27T08:26:36.473Z,101808.66
2024-02-27T08:29:02.792Z,101815.00
2024-02-27T08:31:29.356Z,101812.94
2024-02-27T08:33:57.809Z,101808.78
2024-02-27T08:36:27.299Z,101809.16
2024-02-27T08:38:53.661Z,101811.09
2024-02-27T08:41:22.807Z,101807.06
2024-02-27T08:43:50.501Z,101812.25
2024-02-27T08:46:18.828Z,101825.34
2024-02-27T08:48:46.066Z,101825.03
2024-02-27T08:51:12.558Z,101823.41
2024-02-27T08:53:39.496Z,101825.81
2024-02-27T08:56:07.728Z,101814.75
2024-02-27T08:58:37.611Z,101817.81
2024-02-27T09:01:04.900Z,101815.03
2024-02-27T09:03:32.452Z,101816.31
2024-02-27T09:05:59.096Z,101814.91
2024-02-27T09:08:25.477Z,101814.94
2024-02-27T09:10:51.981Z,101810.50
2024-02-27T09:13:18.287Z,101811.38
2024-02-27T09:15:44.815Z,101816.22
2024-02-27T09:18:11.525Z,101819.22
2024-02-27T09:20:38.660Z,101815.66
2024-02-27T09:23:04.949Z,101804.16
2024-02-27T09:25:31.224Z,101819.09
2024-02-27T09:27:57.583Z,101813.50
2024-02-27T09:30:24.272Z,101809.56
2024-02-27T09:32:54.458Z,101810.72
2024-02-27T09:35:20.868Z,101809.69
2024-02-27T09:37:47.254Z,101798.06
2024-02-27T09:40:13.847Z,101800.47
2024-02-27T09:42:40.278Z,101806.44
2024-02-27T09:45:08.340Z,101802.41
2024-02-27T09:47:40.654Z,101808.44
2024-02-27T09:50:09.083Z,101797.94
2024-02-27T09:52:36.758Z,101799.38
2024-02-27T09:55:03.317Z,101800.16
2024-02-27T09:57:30.330Z,101801.41
2024-02-27T09:59:57.180Z,101806.25
2024-02-27T10:02:23.751Z,101799.38
2024-02-27T10:04:50.786Z,101808.25
2024-02-27T10:07:19.465Z,101804.03
2024-02-27T10:09:46.642Z,101807.06
2024-02-27T10:12:14.752Z,101810.25
2024-02-27T10:14:41.540Z,101823.06
2024-02-27T10:17:08.727Z,101818.50
2024-02-27T10:19:36.422Z,101826.09
2024-02-27T10:22:03.885Z,101828.63
2024-02-27T10:24:30.514Z,101815.78
2024-02-27T10:26:57.125Z,101814.31
2024-02-27T10:29:24.075Z,101810.28
2024-02-27T10:31:51.710Z,101819.63
2024-02-27T10:34:19.291Z,101819.88
2024-02-27T10:36:46.086Z,101817.47
2024-02-27T10:39:12.595Z,101817.34
2024-02-27T10:41:40.167Z,101820.41
2024-02-27T10:44:14.284Z,101821.91
2024-02-27T10:46:41.598Z,101825.22
2024-02-27T10:49:10.001Z,101820.91
2024-02-27T10:51:38.058Z,101817.63
2024-02-27T10:54:05.461Z,101818.91
2024-02-27T10:56:32.204Z,101818.38
2024-02-27T10:58:58.541Z,101826.09
2024-02-27T11:01:28.516Z,101830.00
2024-02-27T11:03:55.369Z,101830.00
2024-02-27T11:06:23.676Z,101831.03
2024-02-27T11:08:57.056Z,101819.88
2024-02-27T11:11:25.687Z,101819.25
2024-02-27T11:13:53.359Z,101813.66
2024-02-27T11:16:22.447Z,101819.63
2024-02-27T11:18:53.188Z,101817.97
2024-02-27T11:21:21.213Z,101822.91
2024-02-27T11:23:47.538Z,101820.25
2024-02-27T11:26:15.284Z,101826.44
2024-02-27T11:28:42.769Z,101825.53
2024-02-27T11:31:09.501Z,101819.69
2024-02-27T11:33:49.033Z,101828.69
2024-02-27T11:36:15.842Z,101828.31
2024-02-27T11:38:45.095Z,101828.47
2024-02-27T11:41:23.053Z,101823.28
2024-02-27T11:43:50.470Z,101826.47
2024-02-27T11:46:32.162Z,101826.72
2024-02-27T11:49:00.082Z,101823.03
2024-02-27T11:51:38.948Z,101821.66
2024-02-27T11:54:12.086Z,101826.72
2024-02-27T11:56:41.609Z,101831.03
2024-02-27T11:59:12.686Z,101837.25
2024-02-27T12:01:39.073Z,101831.69
2024-02-27T12:04:10.649Z,101829.28
2024-02-27T12:06:37.103Z,101824.94
2024-02-27T12:09:03.871Z,101826.75
2024-02-27T12:11:30.422Z,101831.94
2024-02-27T12:13:57.210Z,101825.06
2024-02-27T12:16:24.716Z,101823.69
2024-02-27T12:18:51.655Z,101826.63
2024-02-27T12:21:33.813Z,101822.03
2024-02-27T12:24:09.675Z,101812.03
2024-02-27T12:26:36.335Z,101807.09
2024-02-27T12:29:02.961Z,101799.63
2024-02-27T12:31:32.744Z,101798.34
2024-02-27T12:34:03.726Z,101801.16
2024-02-27T12:36:32.346Z,101799.09
2024-02-27T12:38:59.361Z,101791.00
2024-02-27T12:41:26.033Z,101791.97
2024-02-27T12:43:52.876Z,101789.72
2024-02-27T12:46:20.173Z,101791.13
2024-02-27T12:48:48.772Z,101780.34
2024-02-27T12:51:16.244Z,101774.88
2024-02-27T12:53:43.302Z,101771.84
2024-02-27T12:56:16.246Z,101772.13
2024-02-27T12:58:42.693Z,101769.28
2024-02-27T13:01:09.324Z,101765.91
2024-02-27T13:03:37.045Z,101761.09
2024-02-27T13:06:05.915Z,101765.16
2024-02-27T13:08:32.710Z,101762.63
2024-02-27T13:10:59.199Z,101763.13
2024-02-27T13:13:30.752Z,101764.25
2024-02-27T13:15:57.118Z,101757.44
2024-02-27T13:18:23.655Z,101758.22
2024-02-27T13:20:50.186Z,101756.06
2024-02-27T13:23:24.578Z,101760.34
2024-02-27T13:25:59.185Z,101757.31
2024-02-27T13:28:28.252Z,101749.69
2024-02-27T13:30:54.920Z,101753.47
2024-02-27T13:33:21.485Z,101747.66
2024-02-27T13:35:48.085Z,101755.00
2024-02-27T13:38:14.379Z,101751.00
2024-02-27T13:40:40.783Z,101755.31
2024-02-27T13:43:07.402Z,101752.78
2024-02-27T13:45:33.794Z,101752.91
2024-02-27T13:48:00.474Z,101747.44
2024-02-27T13:50:26.877Z,101748.72
2024-02-27T13:52:53.386Z,101746.28
2024-02-27T13:55:19.670Z,101750.25
2024-02-27T13:57:46.271Z,101749.84
2024-02-27T14:00:13.096Z,101756.56
2024-02-27T14:02:39.720Z,101760.63
2024-02-27T14:05:06.279Z,101757.13
2024-02-27T14:07:32.621Z,101759.41
2024-02-27T14:09:59.197Z,101761.28
2024-02-27T14:12:25.861Z,101765.44
2024-02-27T14:14:52.164Z,101764.56
2024-02-27T14:17:18.671Z,101771.50
2024-02-27T14:19:45.825Z,101772.50
2024-02-27T14:22:12.268Z,101769.34
2024-02-27T14:24:39.038Z,101765.69
2024-02-27T14:27:05.792Z,101772.25
2024-02-27T14:29:32.117Z,101766.56
2024-02-27T14:31:58.579Z,101767.19
2024-02-27T14:34:25.694Z,101767.97
2024-02-27T14:36:52.493Z,101762.19
2024-02-27T14:39:20.889Z,101767.31
2024-02-27T14:41:47.330Z,101764.44
2024-02-27T14:44:13.851Z,101755.28
2024-02-27T14:46:41.400Z,101758.97
2024-02-27T14:49:07.973Z,101759.22
2024-02-27T14:51:34.388Z,101761.28
2024-02-27T14:54:00.765Z,101765.31
2024-02-27T14:56:27.063Z,101756.88
2024-02-27T14:58:53.586Z,101760.63
2024-02-27T15:01:20.072Z,101761.13
2024-02-27T15:03:46.573Z,101761.63
2024-02-27T15:06:13.897Z,101770.75
2024-02-27T15:08:40.347Z,101757.31
2024-02-27T15:11:08.940Z,101761.88
2024-02-27T15:13:35.430Z,101756.28
2024-02-27T15:16:02.072Z,101756.81
2024-02-27T15:18:28.464Z,101765.13
2024-02-27T15:21:00.057Z,101763.38
2024-02-27T15:23:26.493Z,101764.09
2024-02-27T15:25:54.456Z,101761.88
2024-02-27T15:28:21.137Z,101772.72
2024-02-27T15:30:47.537Z,101772.72
2024-02-27T15:33:14.447Z,101784.09
2024-02-27T15:35:43.529Z,101781.31
2024-02-27T15:38:10.161Z,101774.50
2024-02-27T15:40:36.483Z,101782.56
2024-02-27T15:43:03.005Z,101775.22
2024-02-27T15:45:29.589Z,101783.31
2024-02-27T15:47:56.195Z,101784.81
2024-02-27T15:50:22.601Z,101769.88
2024-02-27T15:52:48.910Z,101768.34
2024-02-27T15:55:18.195Z,101765.53
2024-02-27T15:57:44.583Z,101761.22
2024-02-27T16:00:11.774Z,101763.03
2024-02-27T16:02:38.237Z,101768.47
2024-02-27T16:05:07.002Z,101766.81
2024-02-27T16:07:35.579Z,101769.22
2024-02-27T16:10:08.001Z,101772.75
2024-02-27T16:12:36.843Z,101780.97
2024-02-27T16:15:05.964Z,101778.31
2024-02-27T16:17:32.588Z,101771.09
2024-02-27T16:19:59.104Z,101787.50
2024-02-27T16:22:26.017Z,101778.50
2024-02-27T16:24:52.415Z,101773.31
2024-02-27T16:27:18.828Z,101783.69
2024-02-27T16:29:45.705Z,101781.28
2024-02-27T16:32:12.009Z,101779.25
2024-02-27T16:34:38.692Z,101775.72
2024-02-27T16:37:05.320Z,101782.91
2024-02-27T16:39:31.868Z,101782.00
2024-02-27T16:41:58.346Z,101783.16
2024-02-27T16:44:24.713Z,101785.56
2024-02-27T16:46:51.402Z,101785.44
2024-02-27T16:49:17.770Z,101780.97
2024-02-27T16:51:44.216Z,101794.25
2024-02-27T16:54:10.617Z,101789.28
2024-02-27T16:56:37.536Z,101783.19
2024-02-27T16:59:03.840Z,101788.38
2024-02-27T17:01:30.418Z,101786.63
2024-02-27T17:03:56.891Z,101794.78
2024-02-27T17:06:27.689Z,101797.19
2024-02-27T17:08:54.370Z,101801.97
2024-02-27T17:11:20.739Z,101805.38
2024-02-27T17:13:47.361Z,101799.19
2024-02-27T17:16:13.904Z,101803.69
2024-02-27T17:18:40.395Z,101806.34
2024-02-27T17:21:07.195Z,101803.94
2024-02-27T17:23:33.536Z,101802.94
2024-02-27T17:26:01.080Z,101807.22
2024-02-27T17:28:27.686Z,101813.19
2024-02-27T17:30:54.285Z,101813.19
2024-02-27T17:33:22.451Z,101819.34
2024-02-27T17:35:48.836Z,101815.38
2024-02-27T17:38:15.444Z,101820.13
2024-02-27T17:40:42.088Z,101816.09
2024-02-27T17:43:08.702Z,101822.06
2024-02-27T17:45:35.435Z,101823.94
2024-02-27T17:48:02.038Z,101833.13
2024-02-27T17:50:28.642Z,101812.53
2024-02-27T17:52:55.184Z,101834.13
2024-02-27T17:55:21.612Z,101837.66
2024-02-27T17:57:48.178Z,101842.19
2024-02-27T18:00:14.706Z,101844.31
2024-02-27T18:02:41.704Z,101844.50
2024-02-27T18:05:08.256Z,101841.34
2024-02-27T18:07:34.850Z,101856.75
2024-02-27T18:10:01.622Z,101850.22
2024-02-27T18:12:29.195Z,101858.97
2024-02-27T18:14:57.119Z,101848.53
2024-02-27T18:17:24.373Z,101853.09
2024-02-27T18:19:50.834Z,101851.47
2024-02-27T18:22:17.554Z,101851.19
2024-02-27T18:24:43.925Z,101856.44
2024-02-27T18:27:10.487Z,101857.06
2024-02-27T18:29:36.956Z,101852.00
2024-02-27T18:32:03.820Z,101858.81
2024-02-27T18:34:30.150Z,101859.44
2024-02-27T18:36:56.811Z,101864.16
2024-02-27T18:39:24.480Z,101856.72
2024-02-27T18:41:50.854Z,101864.28
2024-02-27T18:44:17.293Z,101863.13
2024-02-27T18:46:43.576Z,101856.50
2024-02-27T18:49:10.322Z,101860.59
2024-02-27T18:51:41.484Z,101868.38
2024-02-27T18:54:08.144Z,101863.25
2024-02-27T18:56:34.842Z,101870.81
2024-02-27T18:59:01.160Z,101872.88
2024-02-27T19:01:27.652Z,101874.47
2024-02-27T19:03:54.026Z,101879.16
2024-02-27T19:06:20.745Z,101877.09
2024-02-27T19:08:48.519Z,101877.22
2024-02-27T19:11:15.063Z,101877.22
2024-02-27T19:13:41.938Z,101883.13
2024-02-27T19:16:08.569Z,101886.84
2024-02-27T19:18:37.873Z,101885.97
2024-02-27T19:21:04.676Z,101887.13
2024-02-27T19:23:31.229Z,101889.81
2024-02-27T19:25:58.622Z,101885.03
2024-02-27T19:28:25.172Z,101879.34
2024-02-27T19:30:51.532Z,101878.00
2024-02-27T19:33:19.858Z,101877.25
2024-02-27T19:35:46.233Z,101879.03
2024-02-27T19:38:18.449Z,101878.75
2024-02-27T19:40:45.858Z,101870.41
2024-02-27T19:43:12.317Z,101872.81
2024-02-27T19:45:40.605Z,101870.47
2024-02-27T19:50:35.014Z,101878.66
2024-02-27T19:53:01.554Z,101869.91
2024-02-27T19:55:28.130Z,101869.03
2024-02-27T19:57:54.461Z,101872.59
2024-02-27T20:00:21.042Z,101874.66
2024-02-27T20:02:47.427Z,101876.41
2024-02-27T20:05:14.173Z,101883.22
2024-02-27T20:07:40.692Z,101875.88
2024-02-27T20:10:08.246Z,101875.56
2024-02-27T20:12:36.433Z,101875.56
2024-02-27T20:15:03.154Z,101870.72
2024-02-27T20:17:29.472Z,101878.00
2024-02-27T20:19:56.012Z,101873.97
2024-02-27T20:22:22.339Z,101874.47
2024-02-27T20:24:48.720Z,101882.22
2024-02-27T20:27:15.286Z,101882.50
2024-02-27T20:29:55.666Z,101874.50
2024-02-27T20:32:25.751Z,101874.97
2024-02-27T20:34:52.029Z,101876.31
2024-02-27T20:37:18.692Z,101874.56
2024-02-27T20:39:45.057Z,101873.69
2024-02-27T20:42:11.597Z,101879.63
2024-02-27T20:44:38.119Z,101876.69
2024-02-27T20:47:04.603Z,101866.31
2024-02-27T20:49:31.298Z,101864.78
2024-02-27T20:51:57.833Z,101862.13
2024-02-27T20:54:24.478Z,101868.84
2024-02-27T20:56:50.905Z,101865.69
2024-02-27T21:39:39.532Z,101843.13
2024-02-27T21:42:06.111Z,101844.03
2024-02-27T21:44:33.128Z,101847.97
2024-02-27T21:46:59.860Z,101858.56
2024-02-27T21:49:26.537Z,101853.22
2024-02-27T21:51:59.495Z,101853.16
2024-02-27T21:54:30.288Z,101869.22
2024-02-27T21:56:57.016Z,101860.78
2024-02-27T21:59:23.680Z,101862.69
2024-02-27T22:01:50.204Z,101870.94
2024-02-27T22:04:16.943Z,101872.97
2024-02-27T22:06:43.557Z,101874.88
2024-02-27T22:09:11.232Z,101884.44
2024-02-27T22:11:38.089Z,101886.72
2024-02-27T22:14:04.796Z,101900.78
2024-02-27T22:16:31.444Z,101904.38
2024-02-27T22:18:58.175Z,101899.41
2024-02-27T22:21:24.699Z,101899.44
2024-02-27T22:23:51.114Z,101906.03
2024-02-27T22:26:17.638Z,101915.59
2024-02-27T22:28:44.029Z,101920.38
2024-02-27T22:31:10.679Z,101921.84
2024-02-27T22:33:37.147Z,101923.34
2024-02-27T22:36:03.836Z,101923.53
